Wilson Maas — 8PSZ — position and weather

sailwx.info

Track history (hours):
 
Tides and Currents Weather Stations Pressure Air Temp Water Temp Dewpoint Dewpoint Depression Visibility Wind Speed Wind Dir Waves Ship Positions

Wilson Maas

Last reported at 2015-Jan-28 16:16 UTC. Time now 2015-Jan-30 04:56 UTC.
Position N 59°30' E 006°15'.

Length 78 m; draft 3.1 m.

Type: Cargo ship. MMSI: 314217000.

Date/timePositionNaut miles runAvg speedWind from/ knotsBaromVisibWave heightAir tempDewpointWater temp
2015-Jan-28 16:16N 59°30' E 006°15'9 9.2
2015-Jan-28 15:18N 59°23' E 006°03'7 9.9
2015-Jan-28 14:33N 59°19' E 005°51'1110.8
2015-Jan-28 13:33N 59°12' E 005°36'9 8.6
2015-Jan-28 12:33N 59°06' E 005°24'  
2015-Jan-24 21:16N 57°47' W 001°38'811.5
2015-Jan-24 20:34N 57°39' W 001°37'1211.7
2015-Jan-24 19:33N 57°27' W 001°35'1111.3
2015-Jan-24 18:33N 57°16' W 001°34'135 9.0
2015-Jan-24 03:30N 55°03' W 000°44'8 8.8
2015-Jan-24 02:33N 54°56' W 000°36'1310.0
2015-Jan-24 01:14N 54°45' W 000°24'710.8
2015-Jan-24 00:33N 54°39' W 000°17'1111.3
2015-Jan-23 23:33N 54°30' W 000°05'1111.3
2015-Jan-23 22:33N 54°21' E 000°06'1110.8
2015-Jan-23 21:34N 54°12' E 000°17'1010.0
2015-Jan-23 20:33N 54°03' E 000°25'9 9.4
2015-Jan-23 19:33N 53°54' E 000°29'9 8.5
2015-Jan-23 18:32N 53°45' E 000°32'47 9.4
2015-Jan-23 13:30N 53°04' E 001°10'1010.7
2015-Jan-23 12:33N 52°59' E 001°24'9 9.5
2015-Jan-23 11:33N 52°53' E 001°37'8 7.8
2015-Jan-23 10:33N 52°48' E 001°47'7 6.6
2015-Jan-23 09:33N 52°44' E 001°55'7 7.0
2015-Jan-23 08:31N 52°38' E 002°02'8 8.6
2015-Jan-23 07:33N 52°31' E 002°10'71 9.5
2015-Jan-23 00:08N 51°36' E 003°23'6 8.3
2015-Jan-22 23:28N 51°31' E 003°26'7 7.6
2015-Jan-22 22:33N 51°26' E 003°34'9 8.7
2015-Jan-22 21:33N 51°22' E 003°46'1010.0
2015-Jan-22 20:34N 51°26' E 004°01'9 8.8
2015-Jan-22 19:33N 51°22' E 004°13'7 7.1
2015-Jan-22 18:33N 51°17' E 004°20'1 0.9
2015-Jan-22 17:18N 51°17' E 004°22'0 0.0
2015-Jan-22 16:33N 51°17' E 004°22'0 0.0
2015-Jan-22 15:33N 51°17' E 004°22'0 0.0
2015-Jan-22 14:33N 51°17' E 004°22'0 0.0
2015-Jan-22 13:21N 51°17' E 004°22'0 0.0
2015-Jan-22 12:30N 51°17' E 004°22'0 0.0
2015-Jan-22 11:33N 51°17' E 004°22'0 0.0
2015-Jan-22 10:33N 51°17' E 004°22'0 0.0
2015-Jan-22 09:30N 51°17' E 004°22'0 0.0
2015-Jan-22 08:33N 51°17' E 004°22'0 0.0
2015-Jan-22 07:33N 51°17' E 004°22'0 0.0
2015-Jan-22 06:33N 51°17' E 004°22'0 0.0
2015-Jan-22 05:30N 51°17' E 004°22'0 0.0
2015-Jan-22 04:24N 51°17' E 004°22'0 0.0
2015-Jan-22 03:33N 51°17' E 004°22'0 0.0
2015-Jan-22 02:22N 51°17' E 004°22'0 0.0
2015-Jan-22 01:33N 51°17' E 004°22'0 0.0
2015-Jan-22 00:33N 51°17' E 004°22'0 0.0
2015-Jan-21 23:33N 51°17' E 004°22'0 0.0
2015-Jan-21 22:48N 51°17' E 004°22'0 0.2
2015-Jan-21 22:45N 51°17' E 004°22'0 0.0
2015-Jan-21 22:33N 51°17' E 004°22'0 0.0
2015-Jan-21 21:33N 51°17' E 004°22'0 0.0
2015-Jan-21 20:33N 51°17' E 004°22'0 0.0
2015-Jan-21 19:33N 51°17' E 004°22'0 0.0
2015-Jan-21 18:33N 51°17' E 004°22'0 0.0
2015-Jan-21 17:34N 51°17' E 004°22'5 4.6
2015-Jan-21 16:34N 51°21' E 004°18'0 0.3
2015-Jan-21 15:33N 51°21' E 004°17'5 4.7
2015-Jan-21 14:33N 51°16' E 004°18'1 1.1
2015-Jan-21 13:33N 51°16' E 004°17'2 1.7
2015-Jan-21 12:34N 51°16' E 004°14'1 0.8
2015-Jan-21 11:31N 51°16' E 004°13'0 0.0
2015-Jan-21 10:31N 51°16' E 004°13'0 0.0
2015-Jan-21 09:31N 51°16' E 004°13'0 0.0
2015-Jan-21 08:31N 51°16' E 004°13'0 0.0
2015-Jan-21 07:31N 51°16' E 004°13'0 0.0
2015-Jan-21 06:31N 51°16' E 004°13'0 0.0
2015-Jan-21 05:16N 51°16' E 004°13'0 0.0
2015-Jan-21 04:28N 51°16' E 004°13'0 0.0
2015-Jan-21 03:19N 51°16' E 004°13'0 0.0
2015-Jan-21 02:28N 51°16' E 004°13'0 0.0
2015-Jan-21 01:31N 51°16' E 004°13'0 0.0
2015-Jan-21 00:28N 51°16' E 004°13'0 0.0
2015-Jan-20 23:16N 51°16' E 004°13'0 0.0
2015-Jan-20 22:22N 51°16' E 004°13'0 0.0
2015-Jan-20 21:28N 51°16' E 004°13'0 0.0
2015-Jan-20 20:29N 51°16' E 004°13'1 1.4
2015-Jan-20 19:33N 51°16' E 004°15'1 1.2
2015-Jan-20 18:33N 51°16' E 004°17'2 2.0
2015-Jan-20 17:34N 51°18' E 004°18'7 7.4
2015-Jan-20 16:33N 51°24' E 004°11'6 6.4
2015-Jan-20 15:33N 51°26' E 004°01'8 8.4
2015-Jan-20 14:33N 51°21' E 003°50'10 9.6
2015-Jan-20 13:33N 51°26' E 003°37'9 9.1
2015-Jan-20 12:33N 51°31' E 003°26'1110.7
2015-Jan-20 11:30N 51°41' E 003°16'6211.7
2015-Jan-20 06:10N 52°30' E 002°12'812.4
2015-Jan-20 05:33N 52°36' E 002°06'1312.2
2015-Jan-20 04:27N 52°48' E 001°55'1010.9
2015-Jan-20 03:33N 52°52' E 001°40'1010.0
2015-Jan-20 02:33N 52°57' E 001°26'10 9.6
2015-Jan-20 01:33N 53°01' E 001°11'40 9.5
2015-Jan-19 21:19N 53°29' E 000°22'810.1
2015-Jan-19 20:33N 53°33' E 000°11'1414.5
2015-Jan-19 19:33N 53°39' W 000°11'1111.3
2015-Jan-19 18:33N 53°42' W 000°29'6 0.5
2015-Jan-19 04:32N 53°42' W 000°40'8 7.8
2015-Jan-19 03:33N 53°42' W 000°27'9 8.6
2015-Jan-19 02:34N 53°41' W 000°13'10 9.7
2015-Jan-19 01:34N 53°36' E 000°01'9 8.7
2015-Jan-19 00:33N 53°34' E 000°15'6 5.9
2015-Jan-18 23:34N 53°39' E 000°21'6 5.6
2015-Jan-18 22:33N 53°43' E 000°28'6 5.6
2015-Jan-18 21:34N 53°47' E 000°33'3 3.5
2015-Jan-18 20:33N 53°50' E 000°37'0 0.5
2015-Jan-18 19:33N 53°50' E 000°37'6 5.2
2015-Jan-18 18:27N 53°54' E 000°43'  
Track history (hours):
 
Tides and Currents Weather Stations Pressure Air Temp Water Temp Dewpoint Dewpoint Depression Visibility Wind Speed Wind Dir Waves Ship Positions

Wilson Maas

Last reported at 2015-Jan-28 16:16 UTC. Time now 2015-Jan-30 04:56 UTC.
Position N 59°30' E 006°15'.

Length 78 m; draft 3.1 m.

Type: Cargo ship. MMSI: 314217000.

Date/timePositionNaut miles runAvg speedWind from/ knotsBaromVisibWave heightAir tempDewpointWater temp
2015-Jan-28 16:16N 59°30' E 006°15'9 9.2
2015-Jan-28 15:18N 59°23' E 006°03'7 9.9
2015-Jan-28 14:33N 59°19' E 005°51'1110.8
2015-Jan-28 13:33N 59°12' E 005°36'9 8.6
2015-Jan-28 12:33N 59°06' E 005°24'  
2015-Jan-24 21:16N 57°47' W 001°38'811.5
2015-Jan-24 20:34N 57°39' W 001°37'1211.7
2015-Jan-24 19:33N 57°27' W 001°35'1111.3
2015-Jan-24 18:33N 57°16' W 001°34'135 9.0
2015-Jan-24 03:30N 55°03' W 000°44'8 8.8
2015-Jan-24 02:33N 54°56' W 000°36'1310.0
2015-Jan-24 01:14N 54°45' W 000°24'710.8
2015-Jan-24 00:33N 54°39' W 000°17'1111.3
2015-Jan-23 23:33N 54°30' W 000°05'1111.3
2015-Jan-23 22:33N 54°21' E 000°06'1110.8
2015-Jan-23 21:34N 54°12' E 000°17'1010.0
2015-Jan-23 20:33N 54°03' E 000°25'9 9.4
2015-Jan-23 19:33N 53°54' E 000°29'9 8.5
2015-Jan-23 18:32N 53°45' E 000°32'47 9.4
2015-Jan-23 13:30N 53°04' E 001°10'1010.7
2015-Jan-23 12:33N 52°59' E 001°24'9 9.5
2015-Jan-23 11:33N 52°53' E 001°37'8 7.8
2015-Jan-23 10:33N 52°48' E 001°47'7 6.6
2015-Jan-23 09:33N 52°44' E 001°55'7 7.0
2015-Jan-23 08:31N 52°38' E 002°02'8 8.6
2015-Jan-23 07:33N 52°31' E 002°10'71 9.5
2015-Jan-23 00:08N 51°36' E 003°23'6 8.3
2015-Jan-22 23:28N 51°31' E 003°26'7 7.6
2015-Jan-22 22:33N 51°26' E 003°34'9 8.7
2015-Jan-22 21:33N 51°22' E 003°46'1010.0
2015-Jan-22 20:34N 51°26' E 004°01'9 8.8
2015-Jan-22 19:33N 51°22' E 004°13'7 7.1
2015-Jan-22 18:33N 51°17' E 004°20'1 0.9
2015-Jan-22 17:18N 51°17' E 004°22'0 0.0
2015-Jan-22 16:33N 51°17' E 004°22'0 0.0
2015-Jan-22 15:33N 51°17' E 004°22'0 0.0
2015-Jan-22 14:33N 51°17' E 004°22'0 0.0
2015-Jan-22 13:21N 51°17' E 004°22'0 0.0
2015-Jan-22 12:30N 51°17' E 004°22'0 0.0
2015-Jan-22 11:33N 51°17' E 004°22'0 0.0
2015-Jan-22 10:33N 51°17' E 004°22'0 0.0
2015-Jan-22 09:30N 51°17' E 004°22'0 0.0
2015-Jan-22 08:33N 51°17' E 004°22'0 0.0
2015-Jan-22 07:33N 51°17' E 004°22'0 0.0
2015-Jan-22 06:33N 51°17' E 004°22'0 0.0
2015-Jan-22 05:30N 51°17' E 004°22'0 0.0
2015-Jan-22 04:24N 51°17' E 004°22'0 0.0
2015-Jan-22 03:33N 51°17' E 004°22'0 0.0
2015-Jan-22 02:22N 51°17' E 004°22'0 0.0
2015-Jan-22 01:33N 51°17' E 004°22'0 0.0
2015-Jan-22 00:33N 51°17' E 004°22'0 0.0
2015-Jan-21 23:33N 51°17' E 004°22'0 0.0
2015-Jan-21 22:48N 51°17' E 004°22'0 0.2
2015-Jan-21 22:45N 51°17' E 004°22'0 0.0
2015-Jan-21 22:33N 51°17' E 004°22'0 0.0
2015-Jan-21 21:33N 51°17' E 004°22'0 0.0
2015-Jan-21 20:33N 51°17' E 004°22'0 0.0
2015-Jan-21 19:33N 51°17' E 004°22'0 0.0
2015-Jan-21 18:33N 51°17' E 004°22'0 0.0
2015-Jan-21 17:34N 51°17' E 004°22'5 4.6
2015-Jan-21 16:34N 51°21' E 004°18'0 0.3
2015-Jan-21 15:33N 51°21' E 004°17'5 4.7
2015-Jan-21 14:33N 51°16' E 004°18'1 1.1
2015-Jan-21 13:33N 51°16' E 004°17'2 1.7
2015-Jan-21 12:34N 51°16' E 004°14'1 0.8
2015-Jan-21 11:31N 51°16' E 004°13'0 0.0
2015-Jan-21 10:31N 51°16' E 004°13'0 0.0
2015-Jan-21 09:31N 51°16' E 004°13'0 0.0
2015-Jan-21 08:31N 51°16' E 004°13'0 0.0
2015-Jan-21 07:31N 51°16' E 004°13'0 0.0
2015-Jan-21 06:31N 51°16' E 004°13'0 0.0
2015-Jan-21 05:16N 51°16' E 004°13'0 0.0
2015-Jan-21 04:28N 51°16' E 004°13'0 0.0
2015-Jan-21 03:19N 51°16' E 004°13'0 0.0
2015-Jan-21 02:28N 51°16' E 004°13'0 0.0
2015-Jan-21 01:31N 51°16' E 004°13'0 0.0
2015-Jan-21 00:28N 51°16' E 004°13'0 0.0
2015-Jan-20 23:16N 51°16' E 004°13'0 0.0
2015-Jan-20 22:22N 51°16' E 004°13'0 0.0
2015-Jan-20 21:28N 51°16' E 004°13'0 0.0
2015-Jan-20 20:29N 51°16' E 004°13'1 1.4
2015-Jan-20 19:33N 51°16' E 004°15'1 1.2
2015-Jan-20 18:33N 51°16' E 004°17'2 2.0
2015-Jan-20 17:34N 51°18' E 004°18'7 7.4
2015-Jan-20 16:33N 51°24' E 004°11'6 6.4
2015-Jan-20 15:33N 51°26' E 004°01'8 8.4
2015-Jan-20 14:33N 51°21' E 003°50'10 9.6
2015-Jan-20 13:33N 51°26' E 003°37'9 9.1
2015-Jan-20 12:33N 51°31' E 003°26'1110.7
2015-Jan-20 11:30N 51°41' E 003°16'6211.7
2015-Jan-20 06:10N 52°30' E 002°12'812.4
2015-Jan-20 05:33N 52°36' E 002°06'1312.2
2015-Jan-20 04:27N 52°48' E 001°55'1010.9
2015-Jan-20 03:33N 52°52' E 001°40'1010.0
2015-Jan-20 02:33N 52°57' E 001°26'10 9.6
2015-Jan-20 01:33N 53°01' E 001°11'40 9.5
2015-Jan-19 21:19N 53°29' E 000°22'810.1
2015-Jan-19 20:33N 53°33' E 000°11'1414.5
2015-Jan-19 19:33N 53°39' W 000°11'1111.3
2015-Jan-19 18:33N 53°42' W 000°29'6 0.5
2015-Jan-19 04:32N 53°42' W 000°40'8 7.8
2015-Jan-19 03:33N 53°42' W 000°27'9 8.6
2015-Jan-19 02:34N 53°41' W 000°13'10 9.7
2015-Jan-19 01:34N 53°36' E 000°01'9 8.7
2015-Jan-19 00:33N 53°34' E 000°15'6 5.9
2015-Jan-18 23:34N 53°39' E 000°21'6 5.6
2015-Jan-18 22:33N 53°43' E 000°28'6 5.6
2015-Jan-18 21:34N 53°47' E 000°33'3 3.5
2015-Jan-18 20:33N 53°50' E 000°37'0 0.5
2015-Jan-18 19:33N 53°50' E 000°37'6 5.2
2015-Jan-18 18:27N 53°54' E 000°43'  

Dump ship's entire track history